Time;durP1;ratioP1;P1;durP2;ratioP2;P2;SDS_P1;SDS_P2;PMS_P1;PMS_P2;Temp;Humidity;BMP_temperature;BMP_pressure;BME280_temperature;BME280_humidity;BME280_pressure;Samples;Min_cycle;Max_cycle;Signal;HPM_P1;HPM_P2
2023/04/03 00:01:55;;;;;;;1999.90;999.90;;;4.60;99.90;;;;;;5034595;28;20045;-78
2023/04/03 00:04:21;;;;;;;1999.90;999.90;;;4.50;99.90;;;;;;5034300;28;20117;-78
2023/04/03 00:06:47;;;;;;;1999.90;999.90;;;4.50;99.90;;;;;;5034455;28;20122;-78
2023/04/03 00:09:12;;;;;;;1999.90;999.90;;;4.50;99.90;;;;;;5033430;28;20388;-78
2023/04/03 00:11:38;;;;;;;1999.90;999.90;;;4.50;99.90;;;;;;5033195;28;20033;-78
2023/04/03 00:14:03;;;;;;;1999.90;999.90;;;4.50;99.90;;;;;;5032624;28;20200;-78
2023/04/03 00:16:29;;;;;;;1999.90;999.90;;;4.40;99.90;;;;;;5034565;28;20422;-78
2023/04/03 00:18:55;;;;;;;1999.90;999.90;;;4.50;99.90;;;;;;5033873;28;20627;-77
2023/04/03 00:21:20;;;;;;;1999.90;999.90;;;4.40;99.90;;;;;;5034619;28;20042;-78
2023/04/03 00:23:46;;;;;;;1999.90;999.90;;;4.40;99.90;;;;;;5034431;28;20374;-78
2023/04/03 00:26:11;;;;;;;1999.90;999.90;;;4.50;99.90;;;;;;5034181;28;20041;-78
2023/04/03 00:28:37;;;;;;;1999.90;999.90;;;4.40;99.90;;;;;;5033770;28;20507;-77
2023/04/03 00:31:03;;;;;;;1999.90;999.90;;;4.40;99.90;;;;;;5034486;28;20042;-78
2023/04/03 00:33:28;;;;;;;1999.90;999.90;;;4.30;99.90;;;;;;5032619;28;20030;-78
2023/04/03 00:35:54;;;;;;;1999.90;999.90;;;4.30;99.90;;;;;;5032446;28;20030;-78
2023/04/03 00:38:20;;;;;;;1999.90;999.90;;;4.30;99.90;;;;;;5033855;28;20036;-78
2023/04/03 00:40:47;;;;;;;1999.90;999.90;;;4.30;99.90;;;;;;5034135;28;20042;-77
2023/04/03 00:43:23;;;;;;;1999.90;999.90;;;4.30;99.90;;;;;;5033732;28;20030;-78
2023/04/03 00:45:53;;;;;;;1999.90;999.90;;;4.30;99.90;;;;;;5033647;28;20061;-78
2023/04/03 00:48:41;;;;;;;1999.90;999.90;;;4.30;99.90;;;;;;5032318;28;20133;-78
2023/04/03 00:51:11;;;;;;;1999.90;999.90;;;4.30;99.90;;;;;;5032170;28;20050;-77
2023/04/03 00:53:46;;;;;;;1999.90;999.90;;;4.30;99.90;;;;;;5033562;28;20041;-78
2023/04/03 00:56:17;;;;;;;1999.90;999.90;;;4.30;99.90;;;;;;5033883;28;20026;-78
2023/04/03 00:58:53;;;;;;;1999.90;999.90;;;4.20;99.90;;;;;;5032436;28;20126;-77
2023/04/03 01:01:22;;;;;;;1999.90;999.90;;;4.20;99.90;;;;;;5034303;28;20539;-78
2023/04/03 01:03:48;;;;;;;1999.90;999.90;;;4.20;99.90;;;;;;5033710;28;20033;-78
2023/04/03 01:06:16;;;;;;;1999.90;999.90;;;4.20;99.90;;;;;;5033647;28;20041;-78
2023/04/03 01:08:42;;;;;;;1999.90;999.90;;;4.30;99.90;;;;;;5032002;28;20068;-78
2023/04/03 01:11:08;;;;;;;1999.90;999.90;;;4.30;99.90;;;;;;5035092;28;20074;-78
2023/04/03 01:13:34;;;;;;;1999.90;999.90;;;4.30;99.90;;;;;;5035462;28;20033;-79
2023/04/03 01:16:04;;;;;;;1999.90;999.90;;;4.40;99.90;;;;;;5036068;28;20029;-78
2023/04/03 01:18:30;;;;;;;1999.90;999.90;;;4.40;99.90;;;;;;5036734;28;20036;-78
2023/04/03 01:21:30;;;;;;;1999.90;999.90;;;4.40;99.90;;;;;;5036964;28;20427;-78
2023/04/03 01:24:03;;;;;;;1999.90;999.90;;;4.50;99.90;;;;;;5035256;28;20044;-78
2023/04/03 01:26:29;;;;;;;1999.90;999.90;;;4.50;99.90;;;;;;5036706;28;20107;-78
2023/04/03 01:28:55;;;;;;;1999.90;999.90;;;4.50;99.90;;;;;;5035317;28;20064;-78
2023/04/03 01:31:35;;;;;;;1999.90;999.90;;;4.50;99.90;;;;;;5036484;28;20410;-78
2023/04/03 01:34:02;;;;;;;1999.90;999.90;;;4.50;99.90;;;;;;5036633;28;20042;-78
2023/04/03 01:36:30;;;;;;;1999.90;999.90;;;4.50;99.90;;;;;;5036824;28;20041;-78
2023/04/03 01:38:58;;;;;;;1999.90;999.90;;;4.50;99.90;;;;;;5035082;28;20030;-78
2023/04/03 01:41:23;;;;;;;1999.90;999.90;;;4.50;99.90;;;;;;5036576;28;20117;-78
2023/04/03 01:43:49;;;;;;;1999.90;999.90;;;4.50;99.90;;;;;;5036218;28;20048;-78
2023/04/03 01:46:16;;;;;;;1999.90;999.90;;;4.50;99.90;;;;;;5036556;28;20061;-78
2023/04/03 01:48:42;;;;;;;1999.90;999.90;;;4.40;99.90;;;;;;5036392;28;20096;-77
2023/04/03 01:51:08;;;;;;;1999.90;999.90;;;4.50;99.90;;;;;;5036497;28;20045;-77
2023/04/03 01:53:34;;;;;;;1999.90;999.90;;;4.40;99.90;;;;;;5036546;28;20038;-77
2023/04/03 01:55:59;;;;;;;1999.90;999.90;;;4.40;99.90;;;;;;5036415;28;20065;-77
2023/04/03 01:58:25;;;;;;;1999.90;999.90;;;4.40;99.90;;;;;;5036009;28;20113;-77
2023/04/03 02:00:51;;;;;;;1999.90;999.90;;;4.40;99.90;;;;;;5034898;28;20447;-77
2023/04/03 02:03:17;;;;;;;1999.90;999.90;;;4.30;99.90;;;;;;5036098;28;20058;-77
2023/04/03 02:05:42;;;;;;;1999.90;999.90;;;4.30;99.90;;;;;;5035816;28;20523;-77
2023/04/03 02:08:08;;;;;;;1999.90;999.90;;;4.30;99.90;;;;;;5036278;28;20038;-77
2023/04/03 02:10:33;;;;;;;1999.90;999.90;;;4.30;99.90;;;;;;5034676;28;20034;-77
2023/04/03 02:12:59;;;;;;;1999.90;999.90;;;4.30;99.90;;;;;;5036307;28;20080;-77
2023/04/03 02:15:25;;;;;;;1999.90;999.90;;;4.30;99.90;;;;;;5035935;28;20030;-77
2023/04/03 02:17:51;;;;;;;1999.90;999.90;;;4.30;99.90;;;;;;5036203;28;20076;-77
2023/04/03 02:20:17;;;;;;;1999.90;999.90;;;4.30;99.90;;;;;;5035990;28;20112;-77
2023/04/03 02:22:43;;;;;;;1999.90;999.90;;;4.30;99.90;;;;;;5034965;28;20116;-77
2023/04/03 02:25:10;;;;;;;1999.90;999.90;;;4.30;99.90;;;;;;5035869;28;20041;-78
2023/04/03 02:27:35;;;;;;;1999.90;999.90;;;4.30;99.90;;;;;;5035315;28;20037;-77
2023/04/03 02:30:01;;;;;;;1999.90;999.90;;;4.30;99.90;;;;;;5033985;28;20045;-77
2023/04/03 02:32:27;;;;;;;1999.90;999.90;;;4.30;99.90;;;;;;5035698;28;20420;-77
2023/04/03 02:34:52;;;;;;;1999.90;999.90;;;4.30;99.90;;;;;;5035671;28;20084;-77
2023/04/03 02:37:18;;;;;;;1999.90;999.90;;;4.30;99.90;;;;;;5035918;28;20034;-77
2023/04/03 02:39:43;;;;;;;1999.90;999.90;;;4.30;99.90;;;;;;5035648;28;20025;-78
2023/04/03 02:42:09;;;;;;;1999.90;999.90;;;4.30;99.90;;;;;;5035767;28;20192;-77
2023/04/03 02:44:35;;;;;;;1999.90;999.90;;;4.20;99.90;;;;;;5033925;28;20427;-77
2023/04/03 02:47:01;;;;;;;1999.90;999.90;;;4.20;99.90;;;;;;5035756;28;20520;-77
2023/04/03 02:49:26;;;;;;;1999.90;999.90;;;4.20;99.90;;;;;;5035299;28;20041;-77
2023/04/03 02:51:52;;;;;;;1999.90;999.90;;;4.20;99.90;;;;;;5035488;28;20536;-77
2023/04/03 02:54:18;;;;;;;1999.90;999.90;;;4.20;99.90;;;;;;5035291;28;20108;-77
2023/04/03 02:56:43;;;;;;;1999.90;999.90;;;4.20;99.90;;;;;;5035593;28;20038;-77
2023/04/03 02:59:09;;;;;;;1999.90;999.90;;;4.30;99.90;;;;;;5035378;28;20038;-77
2023/04/03 03:01:35;;;;;;;1999.90;999.90;;;4.30;99.90;;;;;;5035522;28;20034;-77
2023/04/03 03:04:01;;;;;;;1999.90;999.90;;;4.20;99.90;;;;;;5033901;28;20100;-77
2023/04/03 03:06:26;;;;;;;1999.90;999.90;;;4.20;99.90;;;;;;5033806;28;20089;-77
2023/04/03 03:08:52;;;;;;;1999.90;999.90;;;4.20;99.90;;;;;;5035016;28;20030;-77
2023/04/03 03:11:18;;;;;;;1999.90;999.90;;;4.20;99.90;;;;;;5035279;28;20068;-77
2023/04/03 03:13:44;;;;;;;1999.90;999.90;;;4.20;99.90;;;;;;5035235;28;20030;-77
2023/04/03 03:16:09;;;;;;;1999.90;999.90;;;4.10;99.90;;;;;;5035031;28;20503;-77
2023/04/03 03:18:35;;;;;;;1999.90;999.90;;;4.10;99.90;;;;;;5033368;28;20045;-77
2023/04/03 03:21:02;;;;;;;1999.90;999.90;;;4.00;99.90;;;;;;5033579;28;20169;-77
2023/04/03 03:23:29;;;;;;;1999.90;999.90;;;3.90;99.90;;;;;;5034902;28;20034;-77
2023/04/03 03:25:57;;;;;;;1999.90;999.90;;;3.80;99.90;;;;;;5034801;28;20061;-78
2023/04/03 03:28:22;;;;;;;1999.90;999.90;;;3.60;99.90;;;;;;5032987;28;20415;-77
2023/04/03 03:30:48;;;;;;;1999.90;999.90;;;3.40;99.90;;;;;;5078840;22;20506;-76
2023/04/03 03:33:13;;;;;;;1999.90;999.90;;;3.20;99.90;;;;;;5073010;28;20417;-75
2023/04/03 03:35:40;;;;;;;1999.90;999.90;;;3.00;99.90;;;;;;5074665;28;20402;-75
2023/04/03 03:38:05;;;;;;;1999.90;999.90;;;2.90;99.90;;;;;;5075014;28;20091;-75
2023/04/03 03:40:31;;;;;;;1999.90;999.90;;;2.80;99.90;;;;;;5073271;28;20548;-75
2023/04/03 03:42:56;;;;;;;1999.90;999.90;;;2.80;99.90;;;;;;5073440;28;20478;-75
2023/04/03 03:45:22;;;;;;;1999.90;999.90;;;2.80;99.90;;;;;;5074831;28;20031;-75
2023/04/03 03:47:47;;;;;;;1999.90;999.90;;;2.80;99.90;;;;;;5074884;28;20048;-75
2023/04/03 03:50:13;;;;;;;1999.90;999.90;;;2.80;99.90;;;;;;5074529;28;20032;-75
2023/04/03 03:52:38;;;;;;;1999.90;999.90;;;2.70;99.90;;;;;;5074804;28;20033;-75
2023/04/03 03:55:04;;;;;;;1999.90;999.90;;;2.70;99.90;;;;;;5074554;28;20052;-75
2023/04/03 03:57:30;;;;;;;1999.90;999.90;;;2.70;99.90;;;;;;5073391;28;20041;-75
2023/04/03 03:59:55;;;;;;;1999.90;999.90;;;2.60;99.90;;;;;;5074986;28;20033;-75
2023/04/03 04:02:21;;;;;;;1999.90;999.90;;;2.70;99.90;;;;;;5075128;28;20063;-76
2023/04/03 04:04:48;;;;;;;1999.90;999.90;;;2.60;99.90;;;;;;5074873;28;20055;-75
2023/04/03 04:07:14;;;;;;;1999.90;999.90;;;2.50;99.90;;;;;;5074880;28;20076;-74
2023/04/03 04:09:39;;;;;;;1999.90;999.90;;;2.50;99.90;;;;;;5074587;28;20114;-75
2023/04/03 04:12:05;;;;;;;1999.90;999.90;;;2.40;99.90;;;;;;5074990;28;20044;-74
2023/04/03 04:14:31;;;;;;;1999.90;999.90;;;2.40;99.90;;;;;;5074415;28;20533;-74
2023/04/03 04:16:56;;;;;;;1999.90;999.90;;;2.30;99.90;;;;;;5072958;28;20037;-75
2023/04/03 04:19:22;;;;;;;1999.90;999.90;;;2.30;99.90;;;;;;5074056;28;20509;-74
2023/04/03 04:21:48;;;;;;;1999.90;999.90;;;2.20;99.90;;;;;;5074572;28;20029;-74
2023/04/03 04:24:13;;;;;;;1999.90;999.90;;;2.20;99.90;;;;;;5074262;28;20478;-74
2023/04/03 04:26:39;;;;;;;1999.90;999.90;;;2.20;99.90;;;;;;5072664;28;20073;-74
2023/04/03 04:29:04;;;;;;;1999.90;999.90;;;2.10;99.90;;;;;;5073734;28;20040;-74
2023/04/03 04:31:30;;;;;;;1999.90;999.90;;;2.10;99.90;;;;;;5065442;28;20041;-75
2023/04/03 04:33:55;;;;;;;1999.90;999.90;;;2.10;99.90;;;;;;5072633;28;20039;-74
2023/04/03 04:36:21;;;;;;;1999.90;999.90;;;2.10;99.90;;;;;;5074996;28;20064;-74
2023/04/03 04:38:46;;;;;;;1999.90;999.90;;;2.10;99.90;;;;;;5074287;28;20064;-74
2023/04/03 04:41:12;;;;;;;1999.90;999.90;;;2.10;99.90;;;;;;5073803;28;20127;-75
2023/04/03 04:43:38;;;;;;;1999.90;999.90;;;2.10;99.90;;;;;;5073896;28;20062;-75
2023/04/03 04:46:09;;;;;;;1999.90;999.90;;;2.10;99.90;;;;;;5075696;28;20041;-75
2023/04/03 04:48:35;;;;;;;1999.90;999.90;;;2.20;99.90;;;;;;5076737;28;20032;-75
2023/04/03 04:51:01;;;;;;;1999.90;999.90;;;2.20;99.90;;;;;;5078170;28;20032;-75
2023/04/03 04:53:27;;;;;;;1999.90;999.90;;;2.30;99.90;;;;;;5082941;28;20036;-74
2023/04/03 04:55:53;;;;;;;1999.90;999.90;;;2.20;99.90;;;;;;5079453;28;20040;-75
2023/04/03 04:58:19;;;;;;;1999.90;999.90;;;2.20;99.90;;;;;;5076547;28;20037;-75
2023/04/03 05:00:45;;;;;;;1999.90;999.90;;;2.20;99.90;;;;;;5075911;28;20037;-75
2023/04/03 05:03:10;;;;;;;1999.90;999.90;;;2.20;99.90;;;;;;5077760;28;20360;-75
2023/04/03 05:05:36;;;;;;;1999.90;999.90;;;2.20;99.90;;;;;;5076028;28;20048;-75
2023/04/03 05:08:03;;;;;;;1999.90;999.90;;;2.20;99.90;;;;;;5077609;28;20037;-75
2023/04/03 05:10:28;;;;;;;1999.90;999.90;;;2.30;99.90;;;;;;5077336;28;20442;-75
2023/04/03 05:12:54;;;;;;;1999.90;999.90;;;2.30;99.90;;;;;;5072877;28;20043;-75
2023/04/03 05:15:20;;;;;;;1999.90;999.90;;;2.30;99.90;;;;;;5077397;28;20110;-76
2023/04/03 05:17:45;;;;;;;1999.90;999.90;;;2.30;99.90;;;;;;5077179;28;20402;-75
2023/04/03 05:20:12;;;;;;;1999.90;999.90;;;2.40;99.90;;;;;;5078211;28;20118;-74
2023/04/03 05:22:37;;;;;;;1999.90;999.90;;;2.40;99.90;;;;;;5077951;28;20064;-75
2023/04/03 05:25:04;;;;;;;1999.90;999.90;;;2.40;99.90;;;;;;5074833;28;20168;-75
2023/04/03 05:27:30;;;;;;;1999.90;999.90;;;2.50;99.90;;;;;;5077343;28;20036;-78
2023/04/03 05:29:55;;;;;;;1999.90;999.90;;;2.50;99.90;;;;;;5076245;28;20035;-77
2023/04/03 05:32:22;;;;;;;1999.90;999.90;;;2.50;99.90;;;;;;5074060;28;20068;-77
2023/04/03 05:34:48;;;;;;;1999.90;999.90;;;2.40;99.90;;;;;;5064008;28;20528;-76
2023/04/03 05:37:14;;;;;;;1999.90;999.90;;;2.40;99.90;;;;;;5068578;28;20071;-77
2023/04/03 05:39:40;;;;;;;1999.90;999.90;;;2.40;99.90;;;;;;5081427;28;20025;-76
2023/04/03 05:42:07;;;;;;;1999.90;999.90;;;2.40;99.90;;;;;;5059455;28;20506;-78
2023/04/03 05:44:33;;;;;;;1999.90;999.90;;;2.40;99.90;;;;;;5075624;28;20543;-77
2023/04/03 05:46:59;;;;;;;1999.90;999.90;;;2.50;99.90;;;;;;5077126;28;20049;-80
2023/04/03 05:49:24;;;;;;;1999.90;999.90;;;2.50;99.90;;;;;;5056451;28;20021;-77
2023/04/03 05:51:51;;;;;;;1999.90;999.90;;;2.60;99.90;;;;;;5057270;28;20041;-76
2023/04/03 05:54:35;;;;;;;1999.90;999.90;;;2.70;99.90;;;;;;5077179;28;20037;-77
2023/04/03 05:57:00;;;;;;;1999.90;999.90;;;2.80;99.90;;;;;;5078097;28;20108;-76
2023/04/03 05:59:26;;;;;;;1999.90;999.90;;;2.90;99.90;;;;;;5078420;28;20080;-77
2023/04/03 06:01:52;;;;;;;1999.90;999.90;;;2.90;99.90;;;;;;5079113;28;20033;-78
2023/04/03 06:04:18;;;;;;;1999.90;999.90;;;3.00;99.90;;;;;;5078413;28;20497;-77
2023/04/03 06:06:52;;;;;;;1999.90;999.90;;;3.00;99.90;;;;;;5079770;28;20033;-74
2023/04/03 06:09:20;;;;;;;1999.90;999.90;;;3.10;99.90;;;;;;5077901;28;20029;-76
2023/04/03 06:11:46;;;;;;;1999.90;999.90;;;3.20;99.90;;;;;;5079725;28;20151;-75
2023/04/03 06:14:12;;;;;;;1999.90;999.90;;;3.20;99.90;;;;;;5082790;28;20410;-76
2023/04/03 06:16:39;;;;;;;1999.90;999.90;;;3.20;99.90;;;;;;5078696;28;20048;-77
2023/04/03 06:19:05;;;;;;;1999.90;999.90;;;3.20;99.90;;;;;;5076666;28;20025;-77
2023/04/03 06:21:31;;;;;;;1999.90;999.90;;;3.20;99.90;;;;;;5078198;28;20518;-76
2023/04/03 06:23:57;;;;;;;1999.90;999.90;;;3.20;99.90;;;;;;5078274;28;20037;-76
2023/04/03 06:26:23;;;;;;;1999.90;999.90;;;3.20;99.90;;;;;;5081246;28;20033;-76
2023/04/03 06:28:48;;;;;;;1999.90;999.90;;;3.10;99.90;;;;;;5078692;28;20025;-73
2023/04/03 06:31:14;;;;;;;1999.90;999.90;;;3.10;99.90;;;;;;5084134;28;20038;-74
2023/04/03 06:33:40;;;;;;;1999.90;999.90;;;3.10;99.90;;;;;;5083771;28;20068;-74
2023/04/03 06:36:06;;;;;;;1999.90;999.90;;;3.10;99.90;;;;;;5084580;28;20056;-74
2023/04/03 06:38:33;;;;;;;1999.90;999.90;;;3.00;99.90;;;;;;5082840;28;20037;-75
2023/04/03 06:40:58;;;;;;;1999.90;999.90;;;3.00;99.90;;;;;;5080416;28;20033;-72
2023/04/03 06:43:24;;;;;;;1999.90;999.90;;;3.00;99.90;;;;;;5078551;28;20040;-73
2023/04/03 06:45:50;;;;;;;1999.90;999.90;;;3.10;99.90;;;;;;5079410;28;20033;-73
2023/04/03 06:48:16;;;;;;;1999.90;999.90;;;3.10;99.90;;;;;;5079242;28;20483;-74
2023/04/03 06:50:41;;;;;;;1999.90;999.90;;;3.20;99.90;;;;;;5078867;28;20053;-72
2023/04/03 06:53:07;;;;;;;1999.90;999.90;;;3.30;99.90;;;;;;5079875;28;20044;-73
2023/04/03 06:55:33;;;;;;;1999.90;999.90;;;3.40;99.90;;;;;;5078805;28;20032;-73
2023/04/03 06:57:59;;;;;;;1999.90;999.90;;;3.40;99.90;;;;;;5078866;28;20063;-73
2023/04/03 07:00:24;;;;;;;1999.90;999.90;;;3.40;99.90;;;;;;5079261;28;20107;-73
2023/04/03 07:02:50;;;;;;;1999.90;999.90;;;3.40;99.90;;;;;;5079942;28;20410;-73
2023/04/03 07:05:15;;;;;;;1999.90;999.90;;;3.50;99.90;;;;;;5080572;28;20029;-74
2023/04/03 07:07:41;;;;;;;1999.90;999.90;;;3.50;99.90;;;;;;5081002;28;20041;-73
2023/04/03 07:10:08;;;;;;;1999.90;999.90;;;3.50;99.90;;;;;;5079058;28;20032;-73
2023/04/03 07:12:33;;;;;;;1999.90;999.90;;;3.60;99.90;;;;;;5079155;28;20451;-73
2023/04/03 07:14:59;;;;;;;1999.90;999.90;;;3.60;99.90;;;;;;5078634;28;20106;-73
2023/04/03 07:17:25;;;;;;;1999.90;999.90;;;3.70;99.90;;;;;;5079316;28;20033;-74
2023/04/03 07:19:51;;;;;;;1999.90;999.90;;;3.90;99.90;;;;;;5079383;28;20029;-73
2023/04/03 07:22:17;;;;;;;1999.90;999.90;;;4.00;99.90;;;;;;5078678;28;20037;-74
2023/04/03 07:24:42;;;;;;;1999.90;999.90;;;4.10;99.90;;;;;;5079490;28;20033;-73
2023/04/03 07:27:08;;;;;;;1999.90;999.90;;;4.30;99.90;;;;;;5079444;28;20551;-73
2023/04/03 07:29:35;;;;;;;1999.90;999.90;;;4.60;99.90;;;;;;5080245;28;20490;-73
2023/04/03 07:32:00;;;;;;;1999.90;999.90;;;4.90;99.90;;;;;;5080458;28;20079;-73
2023/04/03 07:34:26;;;;;;;1999.90;999.90;;;5.10;99.90;;;;;;5079210;28;20063;-72
2023/04/03 07:36:52;;;;;;;1999.90;999.90;;;5.30;99.90;;;;;;5079528;28;20041;-74
2023/04/03 07:39:17;;;;;;;1999.90;999.90;;;5.40;99.90;;;;;;5079588;28;20028;-74
2023/04/03 07:41:43;;;;;;;1999.90;999.90;;;5.50;99.90;;;;;;5080654;28;20041;-74
2023/04/03 07:44:09;;;;;;;1999.90;999.90;;;5.60;99.90;;;;;;5079956;28;20052;-73
2023/04/03 07:46:35;;;;;;;1999.90;999.90;;;5.90;99.90;;;;;;5081703;28;20104;-73
2023/04/03 07:49:01;;;;;;;1999.90;999.90;;;6.00;99.90;;;;;;5080783;28;20048;-74
2023/04/03 07:51:28;;;;;;;1999.90;999.90;;;6.10;99.90;;;;;;5081088;28;20048;-74
2023/04/03 07:53:53;;;;;;;1999.90;999.90;;;6.30;99.90;;;;;;5081196;28;20028;-74
2023/04/03 07:56:20;;;;;;;1999.90;999.90;;;6.40;99.90;;;;;;5081187;28;20441;-74
2023/04/03 07:58:46;;;;;;;1999.90;999.90;;;6.40;99.90;;;;;;5081048;28;20033;-73
2023/04/03 08:01:11;;;;;;;1999.90;999.90;;;6.50;99.90;;;;;;5081183;28;20033;-74
2023/04/03 08:03:38;;;;;;;1999.90;999.90;;;6.50;99.90;;;;;;5080394;28;20079;-74
2023/04/03 08:06:05;;;;;;;1999.90;999.90;;;6.70;99.90;;;;;;5082035;28;20037;-74
2023/04/03 08:08:32;;;;;;;1999.90;999.90;;;6.80;99.90;;;;;;5082023;28;20044;-73
2023/04/03 08:11:00;;;;;;;1999.90;999.90;;;6.80;99.90;;;;;;5081594;28;20033;-73
2023/04/03 08:13:25;;;;;;;1999.90;999.90;;;6.90;99.90;;;;;;5081474;28;20415;-73
2023/04/03 08:15:51;;;;;;;1999.90;999.90;;;6.90;99.90;;;;;;5081677;28;20033;-73
2023/04/03 08:18:18;;;;;;;1999.90;999.90;;;7.10;99.90;;;;;;5082443;28;20071;-74
2023/04/03 08:20:43;;;;;;;1999.90;999.90;;;7.00;99.90;;;;;;5082690;28;20085;-73
2023/04/03 08:23:10;;;;;;;1999.90;999.90;;;7.20;99.90;;;;;;5085413;28;20117;-74
2023/04/03 08:25:40;;;;;;;1999.90;999.90;;;7.10;99.90;;;;;;5084297;28;20032;-74
2023/04/03 08:28:06;;;;;;;1999.90;999.90;;;7.00;99.90;;;;;;5084178;28;20040;-73
2023/04/03 08:30:32;;;;;;;1999.90;999.90;;;6.80;99.90;;;;;;5084083;28;20545;-76
2023/04/03 08:32:59;;;;;;;1999.90;999.90;;;7.00;99.90;;;;;;5085974;28;20041;-73
2023/04/03 08:35:25;;;;;;;1999.90;999.90;;;7.10;99.90;;;;;;5084670;28;20029;-73
2023/04/03 08:37:50;;;;;;;1999.90;999.90;;;7.20;99.90;;;;;;5085223;28;20101;-73
2023/04/03 08:40:16;;;;;;;1999.90;999.90;;;7.20;99.90;;;;;;5084774;28;20034;-74
2023/04/03 08:43:04;;;;;;;1999.90;999.90;;;7.20;99.90;;;;;;5086309;28;20033;-73
2023/04/03 08:45:50;;;;;;;1999.90;999.90;;;7.30;99.90;;;;;;5079822;28;20029;-73
2023/04/03 08:48:22;;;;;;;1999.90;999.90;;;7.60;99.90;;;;;;5080531;28;20489;-74
2023/04/03 08:50:59;;;;;;;1999.90;999.90;;;7.70;99.90;;;;;;5080707;28;20048;-75
2023/04/03 08:53:30;;;;;;;1999.90;999.90;;;8.10;99.90;;;;;;5084397;28;20076;-71
2023/04/03 08:55:57;;;;;;;1999.90;999.90;;;8.30;99.90;;;;;;5081836;28;20036;-71
2023/04/03 08:58:29;;;;;;;1999.90;999.90;;;8.20;99.90;;;;;;5081916;28;20029;-73
2023/04/03 09:01:03;;;;;;;1999.90;999.90;;;8.50;99.90;;;;;;5078495;28;20021;-75
2023/04/03 09:03:32;;;;;;;1999.90;999.90;;;8.50;99.90;;;;;;5077663;28;20033;-74
2023/04/03 09:06:05;;;;;;;1999.90;999.90;;;8.60;99.90;;;;;;5075415;28;20029;-74
2023/04/03 09:08:44;;;;;;;1999.90;999.90;;;8.70;99.90;;;;;;5075533;28;20044;-74
2023/04/03 09:11:21;;;;;;;1999.90;999.90;;;9.00;99.60;;;;;;5076030;28;20033;-74
2023/04/03 09:13:50;;;;;;;1999.90;999.90;;;8.70;99.50;;;;;;5075904;28;20033;-74
2023/04/03 09:16:46;;;;;;;1999.90;999.90;;;8.70;99.40;;;;;;5075497;28;20556;-73
2023/04/03 09:19:23;;;;;;;1999.90;999.90;;;8.70;98.70;;;;;;5078624;28;20486;-74
2023/04/03 09:21:48;;;;;;;1999.90;999.90;;;8.50;98.60;;;;;;5079449;28;20077;-74
2023/04/03 09:24:15;;;;;;;1999.90;999.90;;;8.40;99.20;;;;;;5075162;28;20060;-75
2023/04/03 09:26:53;;;;;;;1999.90;999.90;;;8.40;99.30;;;;;;5076931;28;20071;-75
2023/04/03 09:29:22;;;;;;;1999.90;999.90;;;8.60;99.20;;;;;;5077423;28;20043;-74
2023/04/03 09:31:49;;;;;;;1999.90;999.90;;;8.80;98.20;;;;;;5076309;28;20395;-74
2023/04/03 09:34:26;;;;;;;1999.90;999.90;;;8.80;99.00;;;;;;5076770;28;20037;-74
2023/04/03 09:36:57;;;;;;;1999.90;999.90;;;8.80;98.00;;;;;;5076968;28;20025;-74
2023/04/03 09:39:27;;;;;;;1999.90;999.90;;;9.10;97.90;;;;;;5076808;28;20529;-74
2023/04/03 09:42:02;;;;;;;1999.90;999.90;;;9.00;98.90;;;;;;5075030;28;20041;-74
2023/04/03 09:44:30;;;;;;;1999.90;999.90;;;9.10;97.30;;;;;;5075029;28;20064;-74
2023/04/03 09:46:56;;;;;;;1999.90;999.90;;;9.20;97.60;;;;;;5076703;28;20063;-74
2023/04/03 09:49:21;;;;;;;1999.90;999.90;;;9.20;98.40;;;;;;5076596;28;20033;-74
2023/04/03 09:51:47;;;;;;;1999.90;999.90;;;9.40;98.90;;;;;;5075447;28;20068;-74
2023/04/03 09:54:40;;;;;;;1999.90;999.90;;;9.80;97.30;;;;;;5076475;28;20037;-74
2023/04/03 09:57:13;;;;;;;1999.90;999.90;;;9.50;97.20;;;;;;5074785;28;20100;-74
2023/04/03 09:59:59;;;;;;;1999.90;999.90;;;9.60;97.50;;;;;;5076668;28;20056;-73
2023/04/03 10:02:35;;;;;;;1999.90;999.90;;;9.90;96.70;;;;;;5076250;28;20032;-73
2023/04/03 10:05:01;;;;;;;1999.90;999.90;;;9.70;95.90;;;;;;5075832;28;20025;-73
2023/04/03 10:07:33;;;;;;;1999.90;999.90;;;9.50;95.40;;;;;;5076489;28;20044;-72
2023/04/03 10:10:15;;;;;;;1999.90;999.90;;;9.20;96.00;;;;;;5076386;28;20108;-71
2023/04/03 10:12:40;;;;;;;1999.90;999.90;;;9.00;95.50;;;;;;5076843;28;20040;-74
2023/04/03 10:15:18;;;;;;;1999.90;999.90;;;8.90;95.50;;;;;;5075971;28;20035;-73
2023/04/03 10:17:50;;;;;;;1999.90;999.90;;;8.90;95.60;;;;;;5074586;28;20033;-74
2023/04/03 10:20:31;;;;;;;1999.90;999.90;;;8.90;96.40;;;;;;5076027;28;20071;-73
2023/04/03 10:23:16;;;;;;;1999.90;999.90;;;9.20;95.70;;;;;;5076351;28;20040;-73
2023/04/03 10:25:48;;;;;;;1999.90;999.90;;;9.70;95.20;;;;;;5075267;28;20047;-73
2023/04/03 10:28:52;;;;;;;1999.90;999.90;;;10.00;93.50;;;;;;5075809;28;20530;-73
2023/04/03 10:31:23;;;;;;;1999.90;999.90;;;10.00;93.50;;;;;;5075799;28;20131;-73
2023/04/03 10:34:04;;;;;;;1999.90;999.90;;;10.20;93.00;;;;;;5075363;28;20043;-73
2023/04/03 10:36:45;;;;;;;1999.90;999.90;;;9.90;93.00;;;;;;5075762;28;20511;-73
2023/04/03 10:39:16;;;;;;;1999.90;999.90;;;9.60;94.20;;;;;;5075296;28;20116;-73
2023/04/03 10:41:55;;;;;;;1999.90;999.90;;;9.70;93.90;;;;;;5075734;28;20060;-73
2023/04/03 10:44:36;;;;;;;1999.90;999.90;;;9.50;93.50;;;;;;5074842;28;20037;-76
2023/04/03 10:47:09;;;;;;;1999.90;999.90;;;9.30;94.60;;;;;;5074382;28;20120;-76
2023/04/03 10:50:15;;;;;;;1999.90;999.90;;;9.40;95.00;;;;;;5075409;28;20027;-76
2023/04/03 10:52:40;;;;;;;1999.90;999.90;;;9.40;95.20;;;;;;5075233;28;20086;-76
2023/04/03 10:55:15;;;;;;;1999.90;999.90;;;9.00;95.10;;;;;;5075257;28;20033;-76
2023/04/03 10:57:40;;;;;;;1999.90;999.90;;;9.00;94.30;;;;;;5075506;28;20108;-76
2023/04/03 11:00:19;;;;;;;1999.90;999.90;;;9.20;95.10;;;;;;5075225;28;20025;-76
2023/04/03 11:02:56;;;;;;;1999.90;999.90;;;9.20;93.70;;;;;;5075504;28;20497;-76
2023/04/03 11:05:32;;;;;;;1999.90;999.90;;;9.30;92.50;;;;;;5067156;28;20037;-76
2023/04/03 11:08:13;;;;;;;1999.90;999.90;;;9.20;92.30;;;;;;5075034;28;20029;-76
2023/04/03 11:10:46;;;;;;;1999.90;999.90;;;9.10;91.70;;;;;;5075218;28;20029;-76
2023/04/03 11:13:25;;;;;;;1999.90;999.90;;;9.00;92.10;;;;;;5074348;28;20041;-76
2023/04/03 11:15:54;;;;;;;1999.90;999.90;;;8.70;92.30;;;;;;5075020;28;20035;-76
2023/04/03 11:18:31;;;;;;;1999.90;999.90;;;8.80;91.70;;;;;;5074929;28;20028;-76
2023/04/03 11:21:26;;;;;;;1999.90;999.90;;;8.90;91.90;;;;;;5074624;28;20025;-76
2023/04/03 11:23:56;;;;;;;1999.90;999.90;;;9.20;91.10;;;;;;5074842;28;20032;-76
2023/04/03 11:26:25;;;;;;;1999.90;999.90;;;9.60;90.90;;;;;;5073246;28;20029;-76
2023/04/03 11:28:58;;;;;;;1999.90;999.90;;;10.40;92.40;;;;;;5074477;28;20434;-76
2023/04/03 11:31:52;;;;;;;1999.90;999.90;;;10.70;88.80;;;;;;5074649;28;20060;-76
2023/04/03 11:34:27;;;;;;;1999.90;999.90;;;10.70;89.10;;;;;;5076282;28;20128;-76
2023/04/03 11:36:58;;;;;;;1999.90;999.90;;;9.90;91.00;;;;;;5077051;28;20528;-76
2023/04/03 11:39:34;;;;;;;1999.90;999.90;;;9.50;91.30;;;;;;5074707;28;20033;-76
2023/04/03 11:42:22;;;;;;;1999.90;999.90;;;9.30;90.90;;;;;;5074420;28;20118;-77
2023/04/03 11:44:48;;;;;;;1999.90;999.90;;;9.40;91.30;;;;;;5074288;28;20542;-76
2023/04/03 11:47:44;;;;;;;1999.90;999.90;;;9.30;90.40;;;;;;5074328;28;20140;-76
2023/04/03 11:50:39;;;;;;;1999.90;999.90;;;9.90;90.40;;;;;;5074819;28;20024;-76
2023/04/03 11:53:07;;;;;;;1999.90;999.90;;;10.30;90.40;;;;;;5074633;28;20029;-77
2023/04/03 11:55:33;;;;;;;1999.90;999.90;;;10.20;86.90;;;;;;5074213;28;20467;-77
2023/04/03 11:57:59;;;;;;;1999.90;999.90;;;10.20;89.20;;;;;;5074556;28;20115;-76
2023/04/03 12:00:43;;;;;;;1999.90;999.90;;;10.40;89.40;;;;;;5074230;28;20033;-76
2023/04/03 12:03:24;;;;;;;1999.90;999.90;;;10.90;87.10;;;;;;5073111;28;20036;-77
2023/04/03 12:05:57;;;;;;;1999.90;999.90;;;10.60;88.40;;;;;;5074268;28;20068;-77
2023/04/03 12:08:47;;;;;;;1999.90;999.90;;;10.70;85.50;;;;;;5074532;28;20828;-76
2023/04/03 12:11:12;;;;;;;1999.90;999.90;;;10.50;86.00;;;;;;5073946;28;20672;-77
2023/04/03 12:13:57;;;;;;;1999.90;999.90;;;10.40;88.30;;;;;;5072692;28;20025;-77
2023/04/03 12:16:37;;;;;;;1999.90;999.90;;;10.10;88.40;;;;;;5074498;28;20481;-77
2023/04/03 12:19:18;;;;;;;1999.90;999.90;;;10.50;84.40;;;;;;5074225;28;20037;-77